Exuberant — WDF4052 — position and weather

sailwx.info

Track history (hours):
 
Tides and Currents Weather Stations Pressure Air Temp Water Temp Dewpoint Dewpoint Depression Visibility Wind Speed Wind Dir Waves Ship Positions

Exuberant

Owner: Preston, Burton L, Mansfield, OH. More information available from US FCC via Universal Licensing System and Coast Guard Vessel Documentation Center.

Last reported at 2017-Oct-20 12:19 UTC. Time now 2017-Nov-23 03:22 UTC.
Position N 34°30' W 076°44'.
Warning: this ship's position is 33 days out of date.

Length 14 m.

Type: Sailing vessel. MMSI: 367447410.

Date/timePositionNaut miles runAvg speedWind from/ knotsBaromVisibWave heightAir tempDewpointWater temp
2017-Oct-20 12:19N 34°30' W 076°44'3 7.2
2017-Oct-20 11:57N 34°32' W 076°42'3 7.3
2017-Oct-20 11:30N 34°34' W 076°39'4 7.5
2017-Oct-20 11:00N 34°36' W 076°36'3 6.2
2017-Oct-20 10:30N 34°38' W 076°33'0 0.0
2017-Oct-19 17:06N 34°38' W 076°33'0 0.0
2017-Oct-19 17:00N 34°38' W 076°33'2 4.6
2017-Oct-19 16:30N 34°39' W 076°35'3 6.7
2017-Oct-19 16:01N 34°40' W 076°39'4 7.1
2017-Oct-19 15:30N 34°43' W 076°40'1 0.0
2017-Oct-18 17:47N 34°43' W 076°40'0 0.1
2017-Oct-18 17:30N 34°43' W 076°40'2 3.1
2017-Oct-18 17:00N 34°43' W 076°42'4 7.4
2017-Oct-18 16:30N 34°46' W 076°41'4 8.7
2017-Oct-18 16:00N 34°51' W 076°41'  
Track history (hours):
 
Tides and Currents Weather Stations Pressure Air Temp Water Temp Dewpoint Dewpoint Depression Visibility Wind Speed Wind Dir Waves Ship Positions

Exuberant

Owner: Preston, Burton L, Mansfield, OH. More information available from US FCC via Universal Licensing System and Coast Guard Vessel Documentation Center.

Last reported at 2017-Oct-20 12:19 UTC. Time now 2017-Nov-23 03:22 UTC.
Position N 34°30' W 076°44'.
Warning: this ship's position is 33 days out of date.

Length 14 m.

Type: Sailing vessel. MMSI: 367447410.

Date/timePositionNaut miles runAvg speedWind from/ knotsBaromVisibWave heightAir tempDewpointWater temp
2017-Oct-20 12:19N 34°30' W 076°44'3 7.2
2017-Oct-20 11:57N 34°32' W 076°42'3 7.3
2017-Oct-20 11:30N 34°34' W 076°39'4 7.5
2017-Oct-20 11:00N 34°36' W 076°36'3 6.2
2017-Oct-20 10:30N 34°38' W 076°33'0 0.0
2017-Oct-19 17:06N 34°38' W 076°33'0 0.0
2017-Oct-19 17:00N 34°38' W 076°33'2 4.6
2017-Oct-19 16:30N 34°39' W 076°35'3 6.7
2017-Oct-19 16:01N 34°40' W 076°39'4 7.1
2017-Oct-19 15:30N 34°43' W 076°40'1 0.0
2017-Oct-18 17:47N 34°43' W 076°40'0 0.1
2017-Oct-18 17:30N 34°43' W 076°40'2 3.1
2017-Oct-18 17:00N 34°43' W 076°42'4 7.4
2017-Oct-18 16:30N 34°46' W 076°41'4 8.7
2017-Oct-18 16:00N 34°51' W 076°41'  

Dump ship's entire track history